< < Back
Terminal Aerodrome Forecast


Current Version              Previous Versions:   1  2  3  4  5  6  7  8  9  

Terminal Aerodrome Forecast

010
FTUS42 KGSP 261140
TAFGSP
TAF
KGSP 261140Z 2612/2712 18003KT P6SM SCT025 BKN060
      TEMPO 2612/2613 BKN007
     FM261900 19005KT P6SM VCTS BKN050CB
     FM262200 19004KT P6SM VCSH OVC060
     FM270900 24003KT 4SM BR OVC035=

Latest METAR

759
SAUS70 KWBC 261200 RRC
MTRGSP
METAR KGSP 261153Z 16006KT 8SM BKN034 21/19 A3011 RMK AO2 SLP184
T02110189 10244 20206 53005


USA.gov is the U.S. government's official web portal to all federal, state and local government web resources and services.